sensor_id;sensor_type;location;lat;lon;timestamp;temperature;humidity
3275;DHT22;1649;53.672;10.064;2023-01-29T00:01:07;2.70;99.90
3275;DHT22;1649;53.672;10.064;2023-01-29T00:03:33;2.60;99.90
3275;DHT22;1649;53.672;10.064;2023-01-29T00:05:59;2.70;99.90
3275;DHT22;1649;53.672;10.064;2023-01-29T00:08:25;2.70;99.90
3275;DHT22;1649;53.672;10.064;2023-01-29T00:10:51;2.70;99.90
3275;DHT22;1649;53.672;10.064;2023-01-29T00:13:17;2.70;99.90
3275;DHT22;1649;53.672;10.064;2023-01-29T00:15:52;2.70;99.90
3275;DHT22;1649;53.672;10.064;2023-01-29T00:18:17;2.70;99.90
3275;DHT22;1649;53.672;10.064;2023-01-29T00:20:43;2.70;99.90
3275;DHT22;1649;53.672;10.064;2023-01-29T00:23:08;2.70;99.90
3275;DHT22;1649;53.672;10.064;2023-01-29T00:25:34;2.70;99.90
3275;DHT22;1649;53.672;10.064;2023-01-29T00:27:59;2.70;99.90
3275;DHT22;1649;53.672;10.064;2023-01-29T00:30:25;2.70;99.90
3275;DHT22;1649;53.672;10.064;2023-01-29T00:32:50;2.70;99.90
3275;DHT22;1649;53.672;10.064;2023-01-29T00:35:17;2.70;99.90
3275;DHT22;1649;53.672;10.064;2023-01-29T00:37:42;2.70;99.90
3275;DHT22;1649;53.672;10.064;2023-01-29T00:40:08;2.70;99.90
3275;DHT22;1649;53.672;10.064;2023-01-29T00:42:34;2.70;99.90
3275;DHT22;1649;53.672;10.064;2023-01-29T00:45:18;2.70;99.90
3275;DHT22;1649;53.672;10.064;2023-01-29T00:47:43;2.70;99.90
3275;DHT22;1649;53.672;10.064;2023-01-29T00:50:10;2.80;99.90
3275;DHT22;1649;53.672;10.064;2023-01-29T00:52:36;2.70;99.90
3275;DHT22;1649;53.672;10.064;2023-01-29T00:55:04;2.70;99.90
3275;DHT22;1649;53.672;10.064;2023-01-29T00:57:31;2.70;99.90
3275;DHT22;1649;53.672;10.064;2023-01-29T00:59:57;2.80;99.90
3275;DHT22;1649;53.672;10.064;2023-01-29T01:02:23;2.70;99.90
3275;DHT22;1649;53.672;10.064;2023-01-29T01:05:09;2.80;99.90
3275;DHT22;1649;53.672;10.064;2023-01-29T01:07:39;2.80;99.90
3275;DHT22;1649;53.672;10.064;2023-01-29T01:10:05;2.80;99.90
3275;DHT22;1649;53.672;10.064;2023-01-29T01:12:52;2.80;99.90
3275;DHT22;1649;53.672;10.064;2023-01-29T01:15:19;2.80;99.90
3275;DHT22;1649;53.672;10.064;2023-01-29T01:17:45;2.80;99.90
3275;DHT22;1649;53.672;10.064;2023-01-29T01:20:13;2.80;99.90
3275;DHT22;1649;53.672;10.064;2023-01-29T01:22:38;2.80;99.90
3275;DHT22;1649;53.672;10.064;2023-01-29T01:25:04;2.90;99.90
3275;DHT22;1649;53.672;10.064;2023-01-29T01:27:30;2.90;99.90
3275;DHT22;1649;53.672;10.064;2023-01-29T01:29:56;2.80;99.90
3275;DHT22;1649;53.672;10.064;2023-01-29T01:32:22;2.90;99.90
3275;DHT22;1649;53.672;10.064;2023-01-29T01:34:47;2.80;99.90
3275;DHT22;1649;53.672;10.064;2023-01-29T01:37:13;2.90;99.90
3275;DHT22;1649;53.672;10.064;2023-01-29T01:39:38;2.80;99.90
3275;DHT22;1649;53.672;10.064;2023-01-29T01:42:10;2.90;99.90
3275;DHT22;1649;53.672;10.064;2023-01-29T01:44:56;2.90;99.90
3275;DHT22;1649;53.672;10.064;2023-01-29T01:47:28;2.90;99.90
3275;DHT22;1649;53.672;10.064;2023-01-29T01:49:56;2.90;99.90
3275;DHT22;1649;53.672;10.064;2023-01-29T01:52:24;2.90;99.90
3275;DHT22;1649;53.672;10.064;2023-01-29T01:54:50;2.90;99.90
3275;DHT22;1649;53.672;10.064;2023-01-29T01:57:19;2.90;99.90
3275;DHT22;1649;53.672;10.064;2023-01-29T01:59:54;2.90;99.90
3275;DHT22;1649;53.672;10.064;2023-01-29T02:02:21;2.80;99.90
3275;DHT22;1649;53.672;10.064;2023-01-29T02:05:06;2.90;99.90
3275;DHT22;1649;53.672;10.064;2023-01-29T02:07:51;2.90;99.90
3275;DHT22;1649;53.672;10.064;2023-01-29T02:10:44;2.90;99.90
3275;DHT22;1649;53.672;10.064;2023-01-29T02:13:10;2.90;99.90
3275;DHT22;1649;53.672;10.064;2023-01-29T02:15:37;2.90;99.90
3275;DHT22;1649;53.672;10.064;2023-01-29T02:18:07;2.90;99.90
3275;DHT22;1649;53.672;10.064;2023-01-29T02:20:33;2.90;99.90
3275;DHT22;1649;53.672;10.064;2023-01-29T02:23:21;2.90;99.90
3275;DHT22;1649;53.672;10.064;2023-01-29T02:31:56;3.00;99.90
3275;DHT22;1649;53.672;10.064;2023-01-29T02:34:47;3.00;99.90
3275;DHT22;1649;53.672;10.064;2023-01-29T02:37:44;3.00;99.90
3275;DHT22;1649;53.672;10.064;2023-01-29T02:43:00;3.00;99.90
3275;DHT22;1649;53.672;10.064;2023-01-29T02:45:36;3.10;99.90
3275;DHT22;1649;53.672;10.064;2023-01-29T02:48:05;3.00;99.90
3275;DHT22;1649;53.672;10.064;2023-01-29T02:50:42;3.10;99.90
3275;DHT22;1649;53.672;10.064;2023-01-29T02:53:20;3.00;99.90
3275;DHT22;1649;53.672;10.064;2023-01-29T02:55:57;3.10;99.90
3275;DHT22;1649;53.672;10.064;2023-01-29T02:58:31;3.10;99.90
3275;DHT22;1649;53.672;10.064;2023-01-29T03:01:03;3.10;99.90
3275;DHT22;1649;53.672;10.064;2023-01-29T03:03:39;3.10;99.90
3275;DHT22;1649;53.672;10.064;2023-01-29T03:06:29;3.10;99.90
3275;DHT22;1649;53.672;10.064;2023-01-29T03:09:01;3.10;99.90
3275;DHT22;1649;53.672;10.064;2023-01-29T03:11:35;3.10;99.90
3275;DHT22;1649;53.672;10.064;2023-01-29T03:14:09;3.10;99.90
3275;DHT22;1649;53.672;10.064;2023-01-29T03:16:49;3.10;99.90
3275;DHT22;1649;53.672;10.064;2023-01-29T03:19:24;3.10;99.90
3275;DHT22;1649;53.672;10.064;2023-01-29T03:21:55;3.10;99.90
3275;DHT22;1649;53.672;10.064;2023-01-29T03:24:43;3.10;99.90
3275;DHT22;1649;53.672;10.064;2023-01-29T03:27:54;3.10;99.90
3275;DHT22;1649;53.672;10.064;2023-01-29T03:30:48;3.10;99.90
3275;DHT22;1649;53.672;10.064;2023-01-29T03:33:41;3.10;99.90
3275;DHT22;1649;53.672;10.064;2023-01-29T03:36:16;3.10;99.90
3275;DHT22;1649;53.672;10.064;2023-01-29T03:38:43;3.10;99.90
3275;DHT22;1649;53.672;10.064;2023-01-29T03:41:25;3.10;99.90
3275;DHT22;1649;53.672;10.064;2023-01-29T03:46:35;3.10;99.90
3275;DHT22;1649;53.672;10.064;2023-01-29T03:51:55;3.20;99.90
3275;DHT22;1649;53.672;10.064;2023-01-29T03:54:31;3.20;99.90
3275;DHT22;1649;53.672;10.064;2023-01-29T03:57:17;3.20;99.90
3275;DHT22;1649;53.672;10.064;2023-01-29T03:59:56;3.20;99.90
3275;DHT22;1649;53.672;10.064;2023-01-29T04:02:33;3.20;99.90
3275;DHT22;1649;53.672;10.064;2023-01-29T04:05:08;3.20;99.90
3275;DHT22;1649;53.672;10.064;2023-01-29T04:07:36;3.20;99.90
3275;DHT22;1649;53.672;10.064;2023-01-29T04:10:08;3.20;99.90
3275;DHT22;1649;53.672;10.064;2023-01-29T04:12:39;3.20;99.90
3275;DHT22;1649;53.672;10.064;2023-01-29T04:15:09;3.30;99.90
3275;DHT22;1649;53.672;10.064;2023-01-29T04:17:41;3.20;99.90
3275;DHT22;1649;53.672;10.064;2023-01-29T04:20:08;3.20;99.90
3275;DHT22;1649;53.672;10.064;2023-01-29T04:22:35;3.20;99.90
3275;DHT22;1649;53.672;10.064;2023-01-29T04:25:05;3.20;99.90
3275;DHT22;1649;53.672;10.064;2023-01-29T04:30:52;3.20;99.90
3275;DHT22;1649;53.672;10.064;2023-01-29T04:33:45;3.20;99.90
3275;DHT22;1649;53.672;10.064;2023-01-29T04:36:25;3.20;99.90
3275;DHT22;1649;53.672;10.064;2023-01-29T04:39:16;3.20;99.90
3275;DHT22;1649;53.672;10.064;2023-01-29T04:42:08;3.20;99.90
3275;DHT22;1649;53.672;10.064;2023-01-29T04:44:46;3.20;99.90
3275;DHT22;1649;53.672;10.064;2023-01-29T04:47:46;3.20;99.90
3275;DHT22;1649;53.672;10.064;2023-01-29T04:50:23;3.20;99.90
3275;DHT22;1649;53.672;10.064;2023-01-29T04:53:02;3.20;99.90
3275;DHT22;1649;53.672;10.064;2023-01-29T04:55:42;3.20;99.90
3275;DHT22;1649;53.672;10.064;2023-01-29T04:58:16;3.20;99.90
3275;DHT22;1649;53.672;10.064;2023-01-29T05:00:48;3.20;99.90
3275;DHT22;1649;53.672;10.064;2023-01-29T05:03:15;3.20;99.90
3275;DHT22;1649;53.672;10.064;2023-01-29T05:05:43;3.20;99.90
3275;DHT22;1649;53.672;10.064;2023-01-29T05:08:12;3.20;99.90
3275;DHT22;1649;53.672;10.064;2023-01-29T05:10:38;3.20;99.90
3275;DHT22;1649;53.672;10.064;2023-01-29T05:13:06;3.20;99.90
3275;DHT22;1649;53.672;10.064;2023-01-29T05:15:43;3.10;99.90
3275;DHT22;1649;53.672;10.064;2023-01-29T05:18:09;3.10;99.90
3275;DHT22;1649;53.672;10.064;2023-01-29T05:20:38;3.10;99.90
3275;DHT22;1649;53.672;10.064;2023-01-29T05:23:07;3.10;99.90
3275;DHT22;1649;53.672;10.064;2023-01-29T05:25:33;3.10;99.90
3275;DHT22;1649;53.672;10.064;2023-01-29T05:27:59;3.10;99.90
3275;DHT22;1649;53.672;10.064;2023-01-29T05:30:57;3.10;99.90
3275;DHT22;1649;53.672;10.064;2023-01-29T05:33:28;3.10;99.90
3275;DHT22;1649;53.672;10.064;2023-01-29T05:35:54;3.00;99.90
3275;DHT22;1649;53.672;10.064;2023-01-29T05:38:20;3.00;99.90
3275;DHT22;1649;53.672;10.064;2023-01-29T05:40:47;3.00;99.90
3275;DHT22;1649;53.672;10.064;2023-01-29T05:43:18;3.10;99.90
3275;DHT22;1649;53.672;10.064;2023-01-29T05:45:52;3.00;99.90
3275;DHT22;1649;53.672;10.064;2023-01-29T05:48:18;3.00;99.90
3275;DHT22;1649;53.672;10.064;2023-01-29T05:50:43;3.00;99.90
3275;DHT22;1649;53.672;10.064;2023-01-29T05:53:09;2.90;99.90
3275;DHT22;1649;53.672;10.064;2023-01-29T05:55:34;3.00;99.90
3275;DHT22;1649;53.672;10.064;2023-01-29T05:58:00;2.90;99.90
3275;DHT22;1649;53.672;10.064;2023-01-29T06:00:25;3.00;99.90
3275;DHT22;1649;53.672;10.064;2023-01-29T06:02:51;2.90;99.90
3275;DHT22;1649;53.672;10.064;2023-01-29T06:05:17;2.90;99.90
3275;DHT22;1649;53.672;10.064;2023-01-29T06:07:42;2.90;99.90
3275;DHT22;1649;53.672;10.064;2023-01-29T06:10:14;2.90;99.90
3275;DHT22;1649;53.672;10.064;2023-01-29T06:12:41;2.90;99.90
3275;DHT22;1649;53.672;10.064;2023-01-29T06:15:07;2.80;99.90
3275;DHT22;1649;53.672;10.064;2023-01-29T06:17:33;2.90;99.90
3275;DHT22;1649;53.672;10.064;2023-01-29T06:19:58;2.90;99.90
3275;DHT22;1649;53.672;10.064;2023-01-29T06:22:24;2.80;99.90
3275;DHT22;1649;53.672;10.064;2023-01-29T06:24:49;2.80;99.90
3275;DHT22;1649;53.672;10.064;2023-01-29T06:27:15;2.80;99.90
3275;DHT22;1649;53.672;10.064;2023-01-29T06:29:40;2.80;99.90
3275;DHT22;1649;53.672;10.064;2023-01-29T06:32:06;2.80;99.90
3275;DHT22;1649;53.672;10.064;2023-01-29T06:34:31;2.80;99.90
3275;DHT22;1649;53.672;10.064;2023-01-29T06:36:57;2.70;99.90
3275;DHT22;1649;53.672;10.064;2023-01-29T06:39:22;2.70;99.90
3275;DHT22;1649;53.672;10.064;2023-01-29T06:41:48;2.70;99.90
3275;DHT22;1649;53.672;10.064;2023-01-29T06:44:13;2.60;99.90
3275;DHT22;1649;53.672;10.064;2023-01-29T06:46:39;2.60;99.90
3275;DHT22;1649;53.672;10.064;2023-01-29T06:49:04;2.60;99.90
3275;DHT22;1649;53.672;10.064;2023-01-29T06:51:30;2.60;99.90
3275;DHT22;1649;53.672;10.064;2023-01-29T06:53:55;2.60;99.90
3275;DHT22;1649;53.672;10.064;2023-01-29T06:56:22;2.60;99.90
3275;DHT22;1649;53.672;10.064;2023-01-29T06:58:47;2.60;99.90
3275;DHT22;1649;53.672;10.064;2023-01-29T07:01:13;2.60;99.90
3275;DHT22;1649;53.672;10.064;2023-01-29T07:03:38;2.60;99.90
3275;DHT22;1649;53.672;10.064;2023-01-29T07:06:06;2.70;99.90
3275;DHT22;1649;53.672;10.064;2023-01-29T07:08:36;2.60;99.90
3275;DHT22;1649;53.672;10.064;2023-01-29T07:11:02;2.70;99.90
3275;DHT22;1649;53.672;10.064;2023-01-29T07:13:28;2.60;99.90
3275;DHT22;1649;53.672;10.064;2023-01-29T07:15:53;2.70;99.90
3275;DHT22;1649;53.672;10.064;2023-01-29T07:18:21;2.70;99.90
3275;DHT22;1649;53.672;10.064;2023-01-29T07:20:47;2.70;99.90
3275;DHT22;1649;53.672;10.064;2023-01-29T07:23:13;2.70;99.90
3275;DHT22;1649;53.672;10.064;2023-01-29T07:25:39;2.70;99.90
3275;DHT22;1649;53.672;10.064;2023-01-29T07:28:05;2.70;99.90
3275;DHT22;1649;53.672;10.064;2023-01-29T07:30:31;2.70;99.90
3275;DHT22;1649;53.672;10.064;2023-01-29T07:33:04;2.70;99.90
3275;DHT22;1649;53.672;10.064;2023-01-29T07:35:31;2.70;99.90
3275;DHT22;1649;53.672;10.064;2023-01-29T07:37:56;2.70;99.90
3275;DHT22;1649;53.672;10.064;2023-01-29T07:40:22;2.70;99.90
3275;DHT22;1649;53.672;10.064;2023-01-29T07:42:47;2.70;99.90
3275;DHT22;1649;53.672;10.064;2023-01-29T07:45:13;2.80;99.90
3275;DHT22;1649;53.672;10.064;2023-01-29T07:47:38;2.80;99.90
3275;DHT22;1649;53.672;10.064;2023-01-29T07:50:05;2.80;99.90
3275;DHT22;1649;53.672;10.064;2023-01-29T07:52:31;2.80;99.90
3275;DHT22;1649;53.672;10.064;2023-01-29T07:54:57;2.70;99.90
3275;DHT22;1649;53.672;10.064;2023-01-29T07:57:23;2.70;99.90
3275;DHT22;1649;53.672;10.064;2023-01-29T07:59:48;2.80;99.90
3275;DHT22;1649;53.672;10.064;2023-01-29T08:02:14;2.70;99.90
3275;DHT22;1649;53.672;10.064;2023-01-29T08:04:39;2.70;99.90
3275;DHT22;1649;53.672;10.064;2023-01-29T08:07:05;2.80;99.90
3275;DHT22;1649;53.672;10.064;2023-01-29T08:09:31;2.80;99.90
3275;DHT22;1649;53.672;10.064;2023-01-29T08:11:57;2.80;99.90
3275;DHT22;1649;53.672;10.064;2023-01-29T08:14:22;2.80;99.90
3275;DHT22;1649;53.672;10.064;2023-01-29T08:16:48;2.90;99.90
3275;DHT22;1649;53.672;10.064;2023-01-29T08:19:14;2.90;99.90
3275;DHT22;1649;53.672;10.064;2023-01-29T08:21:39;2.90;99.90
3275;DHT22;1649;53.672;10.064;2023-01-29T08:24:05;2.90;99.90
3275;DHT22;1649;53.672;10.064;2023-01-29T08:26:32;2.90;99.90
3275;DHT22;1649;53.672;10.064;2023-01-29T08:28:57;2.90;99.90
3275;DHT22;1649;53.672;10.064;2023-01-29T08:31:23;2.90;99.90
3275;DHT22;1649;53.672;10.064;2023-01-29T08:33:48;3.00;99.90
3275;DHT22;1649;53.672;10.064;2023-01-29T08:36:14;3.00;99.90
3275;DHT22;1649;53.672;10.064;2023-01-29T08:38:40;2.90;99.90
3275;DHT22;1649;53.672;10.064;2023-01-29T08:41:06;3.00;99.90
3275;DHT22;1649;53.672;10.064;2023-01-29T08:43:32;2.90;99.90
3275;DHT22;1649;53.672;10.064;2023-01-29T08:45:59;3.00;99.90
3275;DHT22;1649;53.672;10.064;2023-01-29T08:48:24;3.00;99.90
3275;DHT22;1649;53.672;10.064;2023-01-29T08:50:50;3.00;99.90
3275;DHT22;1649;53.672;10.064;2023-01-29T08:53:16;2.90;99.90
3275;DHT22;1649;53.672;10.064;2023-01-29T08:55:45;3.00;99.90
3275;DHT22;1649;53.672;10.064;2023-01-29T08:58:10;3.00;99.90
3275;DHT22;1649;53.672;10.064;2023-01-29T09:00:36;3.00;99.90
3275;DHT22;1649;53.672;10.064;2023-01-29T09:03:02;3.00;99.90
3275;DHT22;1649;53.672;10.064;2023-01-29T09:05:28;3.00;99.90
3275;DHT22;1649;53.672;10.064;2023-01-29T09:07:57;3.00;99.90
3275;DHT22;1649;53.672;10.064;2023-01-29T09:10:23;3.00;99.90
3275;DHT22;1649;53.672;10.064;2023-01-29T09:12:49;3.00;99.90
3275;DHT22;1649;53.672;10.064;2023-01-29T09:15:14;3.00;99.90
3275;DHT22;1649;53.672;10.064;2023-01-29T09:17:40;3.00;99.90
3275;DHT22;1649;53.672;10.064;2023-01-29T09:20:06;3.00;99.90
3275;DHT22;1649;53.672;10.064;2023-01-29T09:22:31;3.10;99.90
3275;DHT22;1649;53.672;10.064;2023-01-29T09:24:57;3.10;99.90
3275;DHT22;1649;53.672;10.064;2023-01-29T09:27:22;3.10;99.90
3275;DHT22;1649;53.672;10.064;2023-01-29T09:29:48;3.10;99.90
3275;DHT22;1649;53.672;10.064;2023-01-29T09:32:13;3.10;99.90
3275;DHT22;1649;53.672;10.064;2023-01-29T09:34:39;3.10;99.90
3275;DHT22;1649;53.672;10.064;2023-01-29T09:37:04;3.10;99.90
3275;DHT22;1649;53.672;10.064;2023-01-29T09:39:30;3.10;99.90
3275;DHT22;1649;53.672;10.064;2023-01-29T09:42:27;3.10;99.90
3275;DHT22;1649;53.672;10.064;2023-01-29T09:45:13;3.20;99.90
3275;DHT22;1649;53.672;10.064;2023-01-29T09:47:40;3.20;99.90
3275;DHT22;1649;53.672;10.064;2023-01-29T09:50:22;3.20;99.90
3275;DHT22;1649;53.672;10.064;2023-01-29T09:55:35;3.20;99.90
3275;DHT22;1649;53.672;10.064;2023-01-29T09:58:12;3.20;99.90
3275;DHT22;1649;53.672;10.064;2023-01-29T10:09:42;3.30;99.90
3275;DHT22;1649;53.672;10.064;2023-01-29T10:17:11;3.40;99.90
3275;DHT22;1649;53.672;10.064;2023-01-29T10:23:06;3.40;99.90
3275;DHT22;1649;53.672;10.064;2023-01-29T10:25:39;3.50;99.90
3275;DHT22;1649;53.672;10.064;2023-01-29T10:28:19;3.50;99.90
3275;DHT22;1649;53.672;10.064;2023-01-29T10:30:48;3.50;99.90
3275;DHT22;1649;53.672;10.064;2023-01-29T10:33:29;3.50;99.90
3275;DHT22;1649;53.672;10.064;2023-01-29T10:36:02;3.50;99.90
3275;DHT22;1649;53.672;10.064;2023-01-29T10:38:39;3.60;99.90
3275;DHT22;1649;53.672;10.064;2023-01-29T10:46:38;3.60;99.90
3275;DHT22;1649;53.672;10.064;2023-01-29T10:51:50;3.60;99.90
3275;DHT22;1649;53.672;10.064;2023-01-29T10:54:46;3.60;99.90
3275;DHT22;1649;53.672;10.064;2023-01-29T11:00:36;3.60;99.90
3275;DHT22;1649;53.672;10.064;2023-01-29T11:05:48;3.70;99.90
3275;DHT22;1649;53.672;10.064;2023-01-29T11:08:22;3.60;99.90
3275;DHT22;1649;53.672;10.064;2023-01-29T11:11:08;3.60;99.90
3275;DHT22;1649;53.672;10.064;2023-01-29T11:13:47;3.70;99.90
3275;DHT22;1649;53.672;10.064;2023-01-29T11:16:13;3.70;99.90
3275;DHT22;1649;53.672;10.064;2023-01-29T11:18:54;3.70;99.90
3275;DHT22;1649;53.672;10.064;2023-01-29T11:21:20;3.60;99.90
3275;DHT22;1649;53.672;10.064;2023-01-29T11:23:46;3.70;99.90
3275;DHT22;1649;53.672;10.064;2023-01-29T11:26:17;3.70;99.90
3275;DHT22;1649;53.672;10.064;2023-01-29T11:28:47;3.70;99.90
3275;DHT22;1649;53.672;10.064;2023-01-29T11:31:19;3.70;99.90
3275;DHT22;1649;53.672;10.064;2023-01-29T11:33:46;3.80;99.90
3275;DHT22;1649;53.672;10.064;2023-01-29T11:36:21;3.70;99.90
3275;DHT22;1649;53.672;10.064;2023-01-29T11:38:47;3.80;99.90
3275;DHT22;1649;53.672;10.064;2023-01-29T11:41:28;3.80;99.90
3275;DHT22;1649;53.672;10.064;2023-01-29T11:43:54;3.80;99.90
3275;DHT22;1649;53.672;10.064;2023-01-29T11:46:23;3.80;99.90
3275;DHT22;1649;53.672;10.064;2023-01-29T11:48:50;3.80;99.90
3275;DHT22;1649;53.672;10.064;2023-01-29T11:51:24;3.80;99.90
3275;DHT22;1649;53.672;10.064;2023-01-29T11:53:54;3.80;99.90
3275;DHT22;1649;53.672;10.064;2023-01-29T11:58:50;3.80;99.90
3275;DHT22;1649;53.672;10.064;2023-01-29T12:01:33;3.90;99.90
3275;DHT22;1649;53.672;10.064;2023-01-29T12:04:01;3.80;99.90
3275;DHT22;1649;53.672;10.064;2023-01-29T12:06:39;3.90;99.90
3275;DHT22;1649;53.672;10.064;2023-01-29T12:09:13;3.90;99.90
3275;DHT22;1649;53.672;10.064;2023-01-29T12:11:39;3.90;99.90
3275;DHT22;1649;53.672;10.064;2023-01-29T12:14:30;3.90;99.90
3275;DHT22;1649;53.672;10.064;2023-01-29T12:17:18;3.90;99.90
3275;DHT22;1649;53.672;10.064;2023-01-29T12:19:50;3.90;99.90
3275;DHT22;1649;53.672;10.064;2023-01-29T12:22:44;4.00;99.90
3275;DHT22;1649;53.672;10.064;2023-01-29T12:25:34;3.90;99.90
3275;DHT22;1649;53.672;10.064;2023-01-29T12:28:18;3.90;99.90
3275;DHT22;1649;53.672;10.064;2023-01-29T12:39:10;3.80;99.90
3275;DHT22;1649;53.672;10.064;2023-01-29T12:41:44;3.80;99.90
3275;DHT22;1649;53.672;10.064;2023-01-29T12:44:19;3.80;99.90
3275;DHT22;1649;53.672;10.064;2023-01-29T12:46:51;3.80;99.90
3275;DHT22;1649;53.672;10.064;2023-01-29T12:49:38;3.80;99.90
3275;DHT22;1649;53.672;10.064;2023-01-29T12:52:12;3.80;99.90
3275;DHT22;1649;53.672;10.064;2023-01-29T12:54:55;3.80;99.90
3275;DHT22;1649;53.672;10.064;2023-01-29T12:57:27;3.90;99.90
3275;DHT22;1649;53.672;10.064;2023-01-29T13:00:08;3.80;99.90
3275;DHT22;1649;53.672;10.064;2023-01-29T13:02:47;3.90;99.90
3275;DHT22;1649;53.672;10.064;2023-01-29T13:05:27;3.90;99.90
3275;DHT22;1649;53.672;10.064;2023-01-29T13:08:04;3.90;99.90
3275;DHT22;1649;53.672;10.064;2023-01-29T13:10:36;3.90;99.90
3275;DHT22;1649;53.672;10.064;2023-01-29T13:13:34;3.90;99.90
3275;DHT22;1649;53.672;10.064;2023-01-29T13:15:59;3.80;99.90
3275;DHT22;1649;53.672;10.064;2023-01-29T13:18:33;3.80;99.90
3275;DHT22;1649;53.672;10.064;2023-01-29T13:21:01;3.80;99.90
3275;DHT22;1649;53.672;10.064;2023-01-29T13:23:35;3.80;99.90
3275;DHT22;1649;53.672;10.064;2023-01-29T13:26:02;3.80;99.90
3275;DHT22;1649;53.672;10.064;2023-01-29T13:28:28;3.80;99.90
3275;DHT22;1649;53.672;10.064;2023-01-29T13:31:23;3.80;99.90
3275;DHT22;1649;53.672;10.064;2023-01-29T13:34:14;3.80;99.90
3275;DHT22;1649;53.672;10.064;2023-01-29T13:36:53;3.90;99.90
3275;DHT22;1649;53.672;10.064;2023-01-29T13:41:49;3.80;99.90
3275;DHT22;1649;53.672;10.064;2023-01-29T13:44:21;3.80;99.90
3275;DHT22;1649;53.672;10.064;2023-01-29T13:46:57;3.80;99.90
3275;DHT22;1649;53.672;10.064;2023-01-29T13:49:33;3.90;99.90
3275;DHT22;1649;53.672;10.064;2023-01-29T13:54:57;3.80;99.90
3275;DHT22;1649;53.672;10.064;2023-01-29T14:02:46;3.90;99.90
3275;DHT22;1649;53.672;10.064;2023-01-29T14:07:59;3.80;99.90
3275;DHT22;1649;53.672;10.064;2023-01-29T14:10:27;3.90;99.90
3275;DHT22;1649;53.672;10.064;2023-01-29T14:15:38;3.80;99.90
3275;DHT22;1649;53.672;10.064;2023-01-29T14:20:55;3.90;99.90
3275;DHT22;1649;53.672;10.064;2023-01-29T14:23:37;3.90;99.90
3275;DHT22;1649;53.672;10.064;2023-01-29T14:31:56;3.90;99.90
3275;DHT22;1649;53.672;10.064;2023-01-29T14:34:29;3.90;99.90
3275;DHT22;1649;53.672;10.064;2023-01-29T14:36:59;3.90;99.90
3275;DHT22;1649;53.672;10.064;2023-01-29T14:39:47;3.90;99.90
3275;DHT22;1649;53.672;10.064;2023-01-29T14:42:22;3.80;99.90
3275;DHT22;1649;53.672;10.064;2023-01-29T14:47:51;3.80;99.90
3275;DHT22;1649;53.672;10.064;2023-01-29T14:53:28;3.80;99.90
3275;DHT22;1649;53.672;10.064;2023-01-29T14:56:25;3.80;99.90
3275;DHT22;1649;53.672;10.064;2023-01-29T14:59:13;3.80;99.90
3275;DHT22;1649;53.672;10.064;2023-01-29T15:01:54;3.80;99.90
3275;DHT22;1649;53.672;10.064;2023-01-29T15:04:26;3.70;99.90
3275;DHT22;1649;53.672;10.064;2023-01-29T15:15:32;3.80;99.90
3275;DHT22;1649;53.672;10.064;2023-01-29T15:18:14;3.80;99.90
3275;DHT22;1649;53.672;10.064;2023-01-29T15:20:42;3.80;99.90
3275;DHT22;1649;53.672;10.064;2023-01-29T15:23:27;3.70;99.90
3275;DHT22;1649;53.672;10.064;2023-01-29T15:26:05;3.70;99.90
3275;DHT22;1649;53.672;10.064;2023-01-29T15:28:33;3.70;99.90
3275;DHT22;1649;53.672;10.064;2023-01-29T15:31:02;3.70;99.90
3275;DHT22;1649;53.672;10.064;2023-01-29T15:33:29;3.70;99.90
3275;DHT22;1649;53.672;10.064;2023-01-29T15:35:58;3.70;99.90
3275;DHT22;1649;53.672;10.064;2023-01-29T15:38:24;3.70;99.90
3275;DHT22;1649;53.672;10.064;2023-01-29T15:40:58;3.70;99.90
3275;DHT22;1649;53.672;10.064;2023-01-29T15:45:56;3.60;99.90
3275;DHT22;1649;53.672;10.064;2023-01-29T15:48:33;3.60;99.90
3275;DHT22;1649;53.672;10.064;2023-01-29T15:51:00;3.60;99.90
3275;DHT22;1649;53.672;10.064;2023-01-29T15:53:34;3.60;99.90
3275;DHT22;1649;53.672;10.064;2023-01-29T15:56:00;3.60;99.90
3275;DHT22;1649;53.672;10.064;2023-01-29T15:58:30;3.60;99.90
3275;DHT22;1649;53.672;10.064;2023-01-29T16:00:58;3.60;99.90
3275;DHT22;1649;53.672;10.064;2023-01-29T16:03:27;3.60;99.90
3275;DHT22;1649;53.672;10.064;2023-01-29T16:05:56;3.60;99.90
3275;DHT22;1649;53.672;10.064;2023-01-29T16:08:23;3.60;99.90
3275;DHT22;1649;53.672;10.064;2023-01-29T16:10:52;3.60;99.90
3275;DHT22;1649;53.672;10.064;2023-01-29T16:13:25;3.60;99.90
3275;DHT22;1649;53.672;10.064;2023-01-29T16:16:03;3.60;99.90
3275;DHT22;1649;53.672;10.064;2023-01-29T16:18:34;3.60;99.90
3275;DHT22;1649;53.672;10.064;2023-01-29T16:21:29;3.60;99.90
3275;DHT22;1649;53.672;10.064;2023-01-29T16:24:03;3.60;99.90
3275;DHT22;1649;53.672;10.064;2023-01-29T16:26:33;3.60;99.90
3275;DHT22;1649;53.672;10.064;2023-01-29T16:29:13;3.60;99.90
3275;DHT22;1649;53.672;10.064;2023-01-29T16:31:41;3.60;99.90
3275;DHT22;1649;53.672;10.064;2023-01-29T16:34:34;3.60;99.90
3275;DHT22;1649;53.672;10.064;2023-01-29T16:37:03;3.60;99.90
3275;DHT22;1649;53.672;10.064;2023-01-29T16:39:38;3.60;99.90
3275;DHT22;1649;53.672;10.064;2023-01-29T16:45:03;3.50;99.90
3275;DHT22;1649;53.672;10.064;2023-01-29T16:50:04;3.50;99.90
3275;DHT22;1649;53.672;10.064;2023-01-29T16:53:00;3.50;99.90
3275;DHT22;1649;53.672;10.064;2023-01-29T16:55:32;3.40;99.90
3275;DHT22;1649;53.672;10.064;2023-01-29T16:58:03;3.40;99.90
3275;DHT22;1649;53.672;10.064;2023-01-29T17:00:33;3.40;99.90
3275;DHT22;1649;53.672;10.064;2023-01-29T17:03:03;3.40;99.90
3275;DHT22;1649;53.672;10.064;2023-01-29T17:05:30;3.40;99.90
3275;DHT22;1649;53.672;10.064;2023-01-29T17:07:57;3.40;99.90
3275;DHT22;1649;53.672;10.064;2023-01-29T17:10:25;3.40;99.90
3275;DHT22;1649;53.672;10.064;2023-01-29T17:13:01;3.30;99.90
3275;DHT22;1649;53.672;10.064;2023-01-29T17:15:46;3.30;99.90
3275;DHT22;1649;53.672;10.064;2023-01-29T17:18:20;3.30;99.90
3275;DHT22;1649;53.672;10.064;2023-01-29T17:20:46;3.20;99.90
3275;DHT22;1649;53.672;10.064;2023-01-29T17:23:12;3.20;99.90
3275;DHT22;1649;53.672;10.064;2023-01-29T17:25:38;3.30;99.90
3275;DHT22;1649;53.672;10.064;2023-01-29T17:28:04;3.20;99.90
3275;DHT22;1649;53.672;10.064;2023-01-29T17:30:31;3.20;99.90
3275;DHT22;1649;53.672;10.064;2023-01-29T17:33:15;3.20;99.90
3275;DHT22;1649;53.672;10.064;2023-01-29T17:35:42;3.20;99.90
3275;DHT22;1649;53.672;10.064;2023-01-29T17:38:14;3.20;99.90
3275;DHT22;1649;53.672;10.064;2023-01-29T17:40:59;3.20;99.90
3275;DHT22;1649;53.672;10.064;2023-01-29T17:43:25;3.20;99.90
3275;DHT22;1649;53.672;10.064;2023-01-29T17:45:50;3.20;99.90
3275;DHT22;1649;53.672;10.064;2023-01-29T17:48:22;3.20;99.90
3275;DHT22;1649;53.672;10.064;2023-01-29T17:50:50;3.20;99.90
3275;DHT22;1649;53.672;10.064;2023-01-29T17:53:18;3.20;99.90
3275;DHT22;1649;53.672;10.064;2023-01-29T17:55:44;3.20;99.90
3275;DHT22;1649;53.672;10.064;2023-01-29T17:58:17;3.20;99.90
3275;DHT22;1649;53.672;10.064;2023-01-29T18:00:43;3.20;99.90
3275;DHT22;1649;53.672;10.064;2023-01-29T18:03:08;3.10;99.90
3275;DHT22;1649;53.672;10.064;2023-01-29T18:05:34;3.00;99.90
3275;DHT22;1649;53.672;10.064;2023-01-29T18:08:00;3.00;99.90
3275;DHT22;1649;53.672;10.064;2023-01-29T18:10:26;3.00;99.90
3275;DHT22;1649;53.672;10.064;2023-01-29T18:12:52;3.00;99.90
3275;DHT22;1649;53.672;10.064;2023-01-29T18:15:17;3.00;99.90
3275;DHT22;1649;53.672;10.064;2023-01-29T18:17:43;3.00;99.90
3275;DHT22;1649;53.672;10.064;2023-01-29T18:20:17;3.00;99.90